createdAt,value
2018-05-24T00:00:09.245Z,18.06
2018-05-24T00:01:09.266Z,18.05
2018-05-24T00:02:09.231Z,18.11
2018-05-24T00:03:09.196Z,18.11
2018-05-24T00:04:09.194Z,18.09
2018-05-24T00:05:09.185Z,18.05
2018-05-24T00:06:09.146Z,18.11
2018-05-24T00:07:09.242Z,18.03
2018-05-24T00:08:09.132Z,18.11
2018-05-24T00:09:09.150Z,18.15
2018-05-24T00:10:09.084Z,18.06
2018-05-24T00:11:09.109Z,18.13
2018-05-24T00:12:09.049Z,18.06
2018-05-24T00:13:09.083Z,18.11
2018-05-24T00:14:09.017Z,18.13
2018-05-24T00:15:09.008Z,18.12
2018-05-24T00:16:09.010Z,18.11
2018-05-24T00:17:08.992Z,18.09
2018-05-24T00:18:08.984Z,18.06
2018-05-24T00:19:08.940Z,18.09
2018-05-24T00:20:08.944Z,18.09
2018-05-24T00:21:09.020Z,18.06
2018-05-24T00:22:08.905Z,18.03
2018-05-24T00:23:08.890Z,18.02
2018-05-24T00:24:08.894Z,18.01
2018-05-24T00:25:08.873Z,18.09
2018-05-24T00:26:08.847Z,18.05
2018-05-24T00:27:08.816Z,18.01
2018-05-24T00:28:08.815Z,18.06
2018-05-24T00:29:08.801Z,17.99
2018-05-24T00:30:08.800Z,17.99
2018-05-24T00:31:08.771Z,17.94
2018-05-24T00:32:08.734Z,18.02
2018-05-24T00:33:08.733Z,17.93
2018-05-24T00:34:08.699Z,18.01
2018-05-24T00:35:08.720Z,17.93
2018-05-24T00:36:08.752Z,17.94
2018-05-24T00:37:08.675Z,17.88
2018-05-24T00:38:08.657Z,17.78
2018-05-24T00:39:08.646Z,17.90
2018-05-24T00:40:08.687Z,17.87
2018-05-24T00:41:08.612Z,17.71
2018-05-24T00:42:08.586Z,17.75
2018-05-24T00:43:08.641Z,17.76
2018-05-24T00:44:08.580Z,17.78
2018-05-24T00:45:08.540Z,17.73
2018-05-24T00:46:08.520Z,17.71
2018-05-24T00:47:08.502Z,17.69
2018-05-24T00:48:08.499Z,17.72
2018-05-24T00:49:08.459Z,17.69
2018-05-24T00:50:08.437Z,17.63
2018-05-24T00:51:08.447Z,17.68
2018-05-24T00:52:08.420Z,17.54
2018-05-24T00:53:08.394Z,17.53
2018-05-24T00:54:08.731Z,17.57
2018-05-24T00:55:08.393Z,17.56
2018-05-24T00:56:08.404Z,17.53
2018-05-24T00:57:08.373Z,17.53
2018-05-24T00:58:08.337Z,17.49
2018-05-24T00:59:08.343Z,17.46
2018-05-24T01:00:08.333Z,17.45
2018-05-24T01:01:08.294Z,17.45
2018-05-24T01:02:08.292Z,17.37
2018-05-24T01:03:08.258Z,17.41
2018-05-24T01:04:08.270Z,17.39
2018-05-24T01:05:08.219Z,17.35
2018-05-24T01:06:08.216Z,17.35
2018-05-24T01:07:08.211Z,17.38
2018-05-24T01:08:08.146Z,17.34
2018-05-24T01:09:08.167Z,17.28
2018-05-24T01:10:08.161Z,17.25
2018-05-24T01:11:08.184Z,17.30
2018-05-24T01:13:41.392Z,17.28
2018-05-24T01:14:32.121Z,17.31
2018-05-24T01:15:31.123Z,17.19
2018-05-24T01:16:31.105Z,17.32
2018-05-24T01:17:31.118Z,17.19
2018-05-24T01:18:31.087Z,17.17
2018-05-24T01:19:31.044Z,17.19
2018-05-24T01:20:31.077Z,17.25
2018-05-24T01:21:31.041Z,17.20
2018-05-24T01:22:30.988Z,17.10
2018-05-24T01:23:31.004Z,17.19
2018-05-24T01:24:30.994Z,17.22
2018-05-24T01:25:31.029Z,17.13
2018-05-24T01:26:30.985Z,17.22
2018-05-24T01:27:31.018Z,17.19
2018-05-24T01:28:30.943Z,17.13
2018-05-24T01:29:30.916Z,17.12
2018-05-24T01:30:30.878Z,17.12
2018-05-24T01:31:42.894Z,17.06
2018-05-24T01:33:36.349Z,17.12
2018-05-24T01:34:25.253Z,17.10
2018-05-24T01:35:25.196Z,17.09
2018-05-24T01:36:25.191Z,17.10
2018-05-24T01:37:25.177Z,17.22
2018-05-24T01:38:25.200Z,17.22
2018-05-24T01:39:25.186Z,17.22
2018-05-24T01:40:25.128Z,17.24
2018-05-24T01:41:25.119Z,17.13
2018-05-24T01:42:25.087Z,17.24
2018-05-24T01:43:25.056Z,17.17
2018-05-24T01:44:25.068Z,17.16
2018-05-24T01:45:25.038Z,17.28
2018-05-24T01:46:25.044Z,17.28
2018-05-24T01:47:24.997Z,17.16
2018-05-24T01:48:24.969Z,17.19
2018-05-24T01:49:25.001Z,17.25
2018-05-24T01:50:24.974Z,17.25
2018-05-24T01:51:24.918Z,17.28
2018-05-24T01:52:24.900Z,17.28
2018-05-24T01:53:24.917Z,17.25
2018-05-24T01:54:24.955Z,17.27
2018-05-24T01:55:33.541Z,17.31
2018-05-24T01:57:29.357Z,17.25
2018-05-24T01:58:19.379Z,17.20
2018-05-24T01:59:19.343Z,17.27
2018-05-24T02:00:19.237Z,17.25
2018-05-24T02:01:19.285Z,17.24
2018-05-24T02:02:19.263Z,17.30
2018-05-24T02:03:19.196Z,17.28
2018-05-24T02:04:19.195Z,17.30
2018-05-24T02:05:19.101Z,17.14
2018-05-24T02:06:19.080Z,17.27
2018-05-24T02:07:19.112Z,17.22
2018-05-24T02:08:19.128Z,17.22
2018-05-24T02:09:19.090Z,17.24
2018-05-24T02:10:19.127Z,17.24
2018-05-24T02:11:19.025Z,17.35
2018-05-24T02:12:19.036Z,17.28
2018-05-24T02:14:42.082Z,17.37
2018-05-24T02:15:42.321Z,17.35
2018-05-24T02:16:42.008Z,17.27
2018-05-24T02:17:42.582Z,17.31
2018-05-24T02:18:42.005Z,17.32
2018-05-24T02:19:41.936Z,17.28
2018-05-24T02:20:41.926Z,17.27
2018-05-24T02:21:41.956Z,17.32
2018-05-24T02:24:16.320Z,17.27
2018-05-24T02:25:05.949Z,17.16
2018-05-24T02:26:05.938Z,17.16
2018-05-24T02:27:05.915Z,17.27
2018-05-24T02:28:05.865Z,17.20
2018-05-24T02:30:40.789Z,17.16
2018-05-24T02:31:30.622Z,17.16
2018-05-24T02:32:29.940Z,17.09
2018-05-24T02:33:29.913Z,17.12
2018-05-24T02:34:29.946Z,17.13
2018-05-24T02:35:29.885Z,17.09
2018-05-24T02:36:29.829Z,17.22
2018-05-24T02:37:29.818Z,17.13
2018-05-24T02:38:29.886Z,17.12
2018-05-24T02:39:29.784Z,17.20
2018-05-24T02:40:29.835Z,17.14
2018-05-24T02:41:29.796Z,17.17
2018-05-24T02:42:29.748Z,17.27
2018-05-24T02:43:29.768Z,17.12
2018-05-24T02:44:29.714Z,17.09
2018-05-24T02:45:29.670Z,17.07
2018-05-24T02:46:29.695Z,16.90
2018-05-24T02:47:29.651Z,16.88
2018-05-24T02:48:29.621Z,16.88
2018-05-24T02:49:29.602Z,16.69
2018-05-24T02:50:29.633Z,16.64
2018-05-24T02:51:29.624Z,16.65
2018-05-24T02:52:29.573Z,16.65
2018-05-24T02:53:29.550Z,16.70
2018-05-24T02:54:29.584Z,16.64
2018-05-24T02:55:29.536Z,16.51
2018-05-24T02:56:29.546Z,16.55
2018-05-24T02:57:29.469Z,16.55
2018-05-24T02:58:29.518Z,16.51
2018-05-24T02:59:29.435Z,16.62
2018-05-24T03:00:29.449Z,16.49
2018-05-24T03:01:29.442Z,16.42
2018-05-24T03:02:29.416Z,16.44
2018-05-24T03:03:29.364Z,16.37
2018-05-24T03:04:29.393Z,16.32
2018-05-24T03:05:29.362Z,16.25
2018-05-24T03:06:29.325Z,16.06
2018-05-24T03:07:29.325Z,15.99
2018-05-24T03:08:29.291Z,16.00
2018-05-24T03:09:29.308Z,15.98
2018-05-24T03:10:29.252Z,15.87
2018-05-24T03:11:29.232Z,15.85
2018-05-24T03:12:29.224Z,15.76
2018-05-24T03:14:52.265Z,15.70
2018-05-24T03:15:52.328Z,15.70
2018-05-24T03:16:52.195Z,15.69
2018-05-24T03:17:52.202Z,15.70
2018-05-24T03:18:52.172Z,15.70
2018-05-24T03:19:52.147Z,15.69
2018-05-24T03:20:52.155Z,15.70
2018-05-24T03:23:15.192Z,15.65
2018-05-24T03:24:15.348Z,15.56
2018-05-24T03:25:15.516Z,15.50
2018-05-24T03:26:15.095Z,15.43
2018-05-24T03:27:15.112Z,15.45
2018-05-24T03:28:15.054Z,15.47
2018-05-24T03:29:15.086Z,15.51
2018-05-24T03:30:15.053Z,15.47
2018-05-24T03:31:15.003Z,15.50
2018-05-24T03:32:14.984Z,15.47
2018-05-24T03:33:15.024Z,15.32
2018-05-24T03:34:14.960Z,15.41
2018-05-24T03:35:15.024Z,15.35
2018-05-24T03:36:14.924Z,15.35
2018-05-24T03:37:14.908Z,15.32
2018-05-24T03:38:14.878Z,15.26
2018-05-24T03:39:14.866Z,15.22
2018-05-24T03:40:14.903Z,15.22
2018-05-24T03:41:14.828Z,15.17
2018-05-24T03:42:14.864Z,15.15
2018-05-24T03:44:47.944Z,15.07
2018-05-24T03:45:37.957Z,15.07
2018-05-24T03:46:37.848Z,14.96
2018-05-24T03:47:37.811Z,14.87
2018-05-24T03:48:37.814Z,14.90
2018-05-24T03:49:37.789Z,14.89
2018-05-24T03:50:37.763Z,14.79
2018-05-24T03:51:37.739Z,14.89
2018-05-24T03:52:37.736Z,14.89
2018-05-24T03:53:37.738Z,14.95
2018-05-24T03:54:37.750Z,14.89
2018-05-24T03:55:37.667Z,14.90
2018-05-24T03:56:37.672Z,14.89
2018-05-24T03:57:37.714Z,14.95
2018-05-24T03:58:37.611Z,14.87
2018-05-24T03:59:37.607Z,14.90
2018-05-24T04:00:37.575Z,14.97
2018-05-24T04:01:37.576Z,14.92
2018-05-24T04:02:37.550Z,14.92
2018-05-24T04:03:37.518Z,14.95
2018-05-24T04:04:37.517Z,14.95
2018-05-24T04:05:37.601Z,14.95
2018-05-24T04:06:37.471Z,14.93
2018-05-24T04:07:37.455Z,14.90
2018-05-24T04:08:37.470Z,14.92
2018-05-24T04:09:37.411Z,14.89
2018-05-24T04:10:37.388Z,14.87
2018-05-24T04:11:37.418Z,14.78
2018-05-24T04:12:37.367Z,14.93
2018-05-24T04:13:37.374Z,14.92
2018-05-24T04:14:37.317Z,14.89
2018-05-24T04:15:37.331Z,14.89
2018-05-24T04:16:37.348Z,14.85
2018-05-24T04:17:37.271Z,14.86
2018-05-24T04:18:37.267Z,14.93
2018-05-24T04:19:37.280Z,14.92
2018-05-24T04:20:37.278Z,14.93
2018-05-24T04:21:37.205Z,14.93
2018-05-24T04:22:37.232Z,14.93
2018-05-24T04:23:37.159Z,14.93
2018-05-24T04:24:37.148Z,15.01
2018-05-24T04:25:37.142Z,14.95
2018-05-24T04:26:37.192Z,15.07
2018-05-24T04:27:37.106Z,15.01
2018-05-24T04:28:37.117Z,15.05
2018-05-24T04:29:37.116Z,15.05
2018-05-24T04:30:37.047Z,15.10
2018-05-24T04:31:37.024Z,15.07
2018-05-24T04:32:37.009Z,15.07
2018-05-24T04:33:37.013Z,15.19
2018-05-24T04:34:36.984Z,15.08
2018-05-24T04:35:36.946Z,15.12
2018-05-24T04:36:36.929Z,15.17
2018-05-24T04:37:36.945Z,15.08
2018-05-24T04:38:36.888Z,15.19
2018-05-24T04:39:36.935Z,15.17
2018-05-24T04:40:36.881Z,15.07
2018-05-24T04:41:36.866Z,15.07
2018-05-24T04:42:36.814Z,15.07
2018-05-24T04:43:36.813Z,15.08
2018-05-24T04:44:36.810Z,15.03
2018-05-24T04:45:36.802Z,15.17
2018-05-24T04:46:36.755Z,15.08
2018-05-24T04:47:36.761Z,15.05
2018-05-24T04:48:36.719Z,15.07
2018-05-24T04:49:36.685Z,15.07
2018-05-24T04:50:36.673Z,15.10
2018-05-24T04:51:36.694Z,15.05
2018-05-24T04:52:36.659Z,15.10
2018-05-24T04:53:36.619Z,15.07
2018-05-24T04:54:36.606Z,15.04
2018-05-24T04:55:36.657Z,15.08
2018-05-24T04:56:36.573Z,15.07
2018-05-24T04:57:36.585Z,15.08
2018-05-24T04:58:36.547Z,15.08
2018-05-24T04:59:36.510Z,15.07
2018-05-24T05:00:36.518Z,15.08
2018-05-24T05:01:36.559Z,15.05
2018-05-24T05:02:36.487Z,15.10
2018-05-24T05:03:36.479Z,15.05
2018-05-24T05:04:36.433Z,15.12
2018-05-24T05:05:36.406Z,15.10
2018-05-24T05:06:36.433Z,15.14
2018-05-24T05:07:36.404Z,15.15
2018-05-24T05:08:36.460Z,15.05
2018-05-24T05:09:37.931Z,15.08
2018-05-24T05:10:36.325Z,15.19
2018-05-24T05:11:36.315Z,15.14
2018-05-24T05:12:36.279Z,15.08
2018-05-24T05:13:36.263Z,15.19
2018-05-24T05:14:36.392Z,15.17
2018-05-24T05:15:36.249Z,15.14
2018-05-24T05:16:36.233Z,15.19
2018-05-24T05:17:36.233Z,15.20
2018-05-24T05:18:36.213Z,15.30
2018-05-24T05:19:36.247Z,15.35
2018-05-24T05:20:36.165Z,15.41
2018-05-24T05:21:36.163Z,15.35
2018-05-24T05:22:36.140Z,15.36
2018-05-24T05:23:36.126Z,15.33
2018-05-24T05:24:36.115Z,15.33
2018-05-24T05:25:36.047Z,15.33
2018-05-24T05:26:36.036Z,15.43
2018-05-24T05:27:36.060Z,15.41
2018-05-24T05:28:35.991Z,15.48
2018-05-24T05:29:36.031Z,15.47
2018-05-24T05:30:35.982Z,15.44
2018-05-24T05:31:35.951Z,15.47
2018-05-24T05:32:35.947Z,15.45
2018-05-24T05:33:35.926Z,15.40
2018-05-24T05:34:35.889Z,15.43
2018-05-24T05:35:35.911Z,15.41
2018-05-24T05:36:35.888Z,15.51
2018-05-24T05:37:35.842Z,15.45
2018-05-24T05:38:35.870Z,15.43
2018-05-24T05:39:35.841Z,15.48
2018-05-24T05:40:35.816Z,15.43
2018-05-24T05:41:35.851Z,15.40
2018-05-24T05:42:35.761Z,15.48
2018-05-24T05:43:35.768Z,15.41
2018-05-24T05:44:35.770Z,15.44
2018-05-24T05:45:35.719Z,15.36
2018-05-24T05:46:35.742Z,15.40
2018-05-24T05:47:35.668Z,15.40
2018-05-24T05:48:35.686Z,15.32
2018-05-24T05:49:35.678Z,15.35
2018-05-24T05:50:35.611Z,15.33
2018-05-24T05:51:35.590Z,15.43
2018-05-24T05:52:35.627Z,15.33
2018-05-24T05:53:35.611Z,15.41
2018-05-24T05:54:35.594Z,15.43
2018-05-24T05:55:35.550Z,15.38
2018-05-24T05:56:35.588Z,15.44
2018-05-24T05:58:58.581Z,15.44
2018-05-24T05:59:58.574Z,15.54
2018-05-24T06:00:58.578Z,15.47
2018-05-24T06:01:58.674Z,15.56
2018-05-24T06:02:58.492Z,15.52
2018-05-24T06:03:58.429Z,15.54
2018-05-24T06:04:58.458Z,15.52
2018-05-24T06:05:58.486Z,15.50
2018-05-24T06:06:58.375Z,15.56
2018-05-24T06:09:31.523Z,15.41
2018-05-24T06:10:21.468Z,15.44
2018-05-24T06:11:21.479Z,15.43
2018-05-24T06:12:21.433Z,15.36
2018-05-24T06:13:21.380Z,15.47
2018-05-24T06:14:21.353Z,15.43
2018-05-24T06:15:21.389Z,15.45
2018-05-24T06:16:21.340Z,15.50
2018-05-24T06:17:21.301Z,15.44
2018-05-24T06:18:21.254Z,15.44
2018-05-24T06:19:21.237Z,15.47
2018-05-24T06:20:21.266Z,15.44
2018-05-24T06:21:21.252Z,15.47
2018-05-24T06:22:21.209Z,15.52
2018-05-24T06:23:21.208Z,15.54
2018-05-24T06:24:21.168Z,15.56
2018-05-24T06:25:21.143Z,15.52
2018-05-24T06:26:21.139Z,15.54
2018-05-24T06:27:21.114Z,15.56
2018-05-24T06:28:21.104Z,15.63
2018-05-24T06:29:21.166Z,15.68
2018-05-24T06:30:21.097Z,15.69
2018-05-24T06:31:21.077Z,15.72
2018-05-24T06:32:21.029Z,15.76
2018-05-24T06:33:21.031Z,15.87
2018-05-24T06:34:20.997Z,15.93
2018-05-24T06:35:21.019Z,15.95
2018-05-24T06:36:20.982Z,16.05
2018-05-24T06:38:44.007Z,16.06
2018-05-24T06:39:43.986Z,16.13
2018-05-24T06:40:43.958Z,16.13
2018-05-24T06:41:43.954Z,16.22
2018-05-24T06:42:43.950Z,16.29
2018-05-24T06:43:43.937Z,16.21
2018-05-24T06:44:43.889Z,16.36
2018-05-24T06:45:43.869Z,16.32
2018-05-24T06:46:43.870Z,16.37
2018-05-24T06:47:43.902Z,16.51
2018-05-24T06:48:43.820Z,16.46
2018-05-24T06:49:43.834Z,16.52
2018-05-24T06:50:43.824Z,16.54
2018-05-24T06:51:43.775Z,16.57
2018-05-24T06:52:43.802Z,16.52
2018-05-24T06:53:43.775Z,16.65
2018-05-24T06:54:43.723Z,16.69
2018-05-24T06:55:43.716Z,16.64
2018-05-24T06:56:43.709Z,16.65
2018-05-24T06:57:43.703Z,16.69
2018-05-24T06:58:43.682Z,16.69
2018-05-24T06:59:43.701Z,16.70
2018-05-24T07:00:43.625Z,16.67
2018-05-24T07:01:43.631Z,16.62
2018-05-24T07:02:43.610Z,16.52
2018-05-24T07:03:43.596Z,16.54
2018-05-24T07:04:43.576Z,16.47
2018-05-24T07:05:43.541Z,16.59
2018-05-24T07:06:43.519Z,16.47
2018-05-24T07:07:43.549Z,16.46
2018-05-24T07:08:43.506Z,16.42
2018-05-24T07:09:43.483Z,16.42
2018-05-24T07:10:43.455Z,16.43
2018-05-24T07:11:43.561Z,16.43
2018-05-24T07:12:43.422Z,16.40
2018-05-24T07:13:43.470Z,16.44
2018-05-24T07:14:43.411Z,16.42
2018-05-24T07:15:43.441Z,16.40
2018-05-24T07:16:43.367Z,16.47
2018-05-24T07:19:16.493Z,16.49
2018-05-24T07:20:06.414Z,16.44
2018-05-24T07:21:06.362Z,16.49
2018-05-24T07:22:06.375Z,16.57
2018-05-24T07:23:06.382Z,16.57
2018-05-24T07:24:06.301Z,16.47
2018-05-24T07:25:06.341Z,16.57
2018-05-24T07:27:29.360Z,16.57
2018-05-24T07:29:52.371Z,16.58
2018-05-24T07:30:52.356Z,16.69
2018-05-24T07:31:52.344Z,16.67
2018-05-24T07:33:00.062Z,16.64
2018-05-24T07:33:52.339Z,16.61
2018-05-24T07:34:52.272Z,16.55
2018-05-24T07:35:52.267Z,16.64
2018-05-24T07:36:52.360Z,16.52
2018-05-24T07:37:52.301Z,16.61
2018-05-24T07:40:16.261Z,16.51
2018-05-24T07:42:50.376Z,16.64
2018-05-24T07:43:40.271Z,16.65
2018-05-24T07:44:40.250Z,16.62
2018-05-24T07:45:40.259Z,16.70
2018-05-24T07:48:14.460Z,16.69
2018-05-24T07:49:04.276Z,16.58
2018-05-24T07:50:04.231Z,16.65
2018-05-24T07:51:04.227Z,16.64
2018-05-24T07:52:04.199Z,16.73
2018-05-24T07:53:04.191Z,16.70
2018-05-24T07:54:04.161Z,16.76
2018-05-24T07:55:04.168Z,16.79
2018-05-24T07:56:04.151Z,16.83
2018-05-24T07:57:04.171Z,16.80
2018-05-24T07:59:27.163Z,16.92
2018-05-24T08:00:27.192Z,17.07
2018-05-24T08:01:27.387Z,17.01
2018-05-24T08:03:51.194Z,17.12
2018-05-24T08:04:51.169Z,17.10
2018-05-24T08:05:51.095Z,17.13
2018-05-24T08:06:51.166Z,17.16
2018-05-24T08:07:51.065Z,17.12
2018-05-24T08:08:51.080Z,17.19
2018-05-24T08:09:51.009Z,17.16
2018-05-24T08:12:14.106Z,17.06
2018-05-24T08:14:37.282Z,16.99
2018-05-24T08:17:00.098Z,16.98
2018-05-24T08:19:33.187Z,17.09
2018-05-24T08:20:23.138Z,16.99
2018-05-24T08:21:23.428Z,16.98
2018-05-24T08:22:23.120Z,16.94
2018-05-24T08:23:23.112Z,16.99
2018-05-24T08:24:23.031Z,16.97
2018-05-24T08:25:23.021Z,16.92
2018-05-24T08:26:23.007Z,16.97
2018-05-24T08:27:22.971Z,17.04
2018-05-24T08:28:22.978Z,17.07
2018-05-24T08:29:22.957Z,17.19
2018-05-24T08:30:22.925Z,17.16
2018-05-24T08:31:22.937Z,17.17
2018-05-24T08:32:22.900Z,17.24
2018-05-24T08:33:22.877Z,17.19
2018-05-24T08:34:22.868Z,17.30
2018-05-24T08:35:22.878Z,17.35
2018-05-24T08:36:22.838Z,17.30
2018-05-24T08:37:22.829Z,17.34
2018-05-24T08:38:22.871Z,17.37
2018-05-24T08:39:22.814Z,17.30
2018-05-24T08:40:22.777Z,17.22
2018-05-24T08:41:22.775Z,17.19
2018-05-24T08:42:22.746Z,17.17
2018-05-24T08:43:22.804Z,17.19
2018-05-24T08:44:22.758Z,17.30
2018-05-24T08:45:22.774Z,17.41
2018-05-24T08:46:22.715Z,17.53
2018-05-24T08:47:22.786Z,17.73
2018-05-24T08:48:22.659Z,17.90
2018-05-24T08:49:22.666Z,17.97
2018-05-24T08:50:22.615Z,18.06
2018-05-24T08:51:22.615Z,18.24
2018-05-24T08:52:22.582Z,18.30
2018-05-24T08:53:22.621Z,18.36
2018-05-24T08:54:22.624Z,18.49
2018-05-24T08:55:22.549Z,18.63
2018-05-24T08:56:22.522Z,18.48
2018-05-24T08:57:22.538Z,18.61
2018-05-24T08:58:22.513Z,18.51
2018-05-24T08:59:22.486Z,18.46
2018-05-24T09:00:22.467Z,18.43
2018-05-24T09:01:22.632Z,18.46
2018-05-24T09:02:22.429Z,18.36
2018-05-24T09:03:22.441Z,18.36
2018-05-24T09:04:22.425Z,18.36
2018-05-24T09:05:22.386Z,18.21
2018-05-24T09:06:22.401Z,18.23
2018-05-24T09:07:22.409Z,18.18
2018-05-24T09:08:22.358Z,18.15
2018-05-24T09:09:22.396Z,18.06
2018-05-24T09:10:22.337Z,17.93
2018-05-24T09:11:22.359Z,17.99
2018-05-24T09:12:22.288Z,17.93
2018-05-24T09:13:22.279Z,17.87
2018-05-24T09:14:22.268Z,17.75
2018-05-24T09:15:22.289Z,17.73
2018-05-24T09:16:22.227Z,17.65
2018-05-24T09:17:22.228Z,17.68
2018-05-24T09:18:22.288Z,17.56
2018-05-24T09:19:22.196Z,17.52
2018-05-24T09:20:22.170Z,17.53
2018-05-24T09:21:22.170Z,17.47
2018-05-24T09:22:22.155Z,17.53
2018-05-24T09:23:22.147Z,17.47
2018-05-24T09:24:22.144Z,17.50
2018-05-24T09:25:22.092Z,17.46
2018-05-24T09:26:22.079Z,17.52
2018-05-24T09:27:22.107Z,17.49
2018-05-24T09:28:22.076Z,17.71
2018-05-24T09:29:22.098Z,17.66
2018-05-24T09:30:22.028Z,17.63
2018-05-24T09:31:22.043Z,17.52
2018-05-24T09:32:22.020Z,17.72
2018-05-24T09:33:21.983Z,17.68
2018-05-24T09:34:21.957Z,17.76
2018-05-24T09:35:21.991Z,17.68
2018-05-24T09:36:22.013Z,17.72
2018-05-24T09:37:21.938Z,17.72
2018-05-24T09:38:21.924Z,17.84
2018-05-24T09:39:21.930Z,17.87
2018-05-24T09:40:21.913Z,17.91
2018-05-24T09:41:21.889Z,18.02
2018-05-24T09:42:21.847Z,18.05
2018-05-24T09:43:21.820Z,18.11
2018-05-24T09:44:21.801Z,18.13
2018-05-24T09:45:21.788Z,18.18
2018-05-24T09:46:21.781Z,18.20
2018-05-24T09:47:21.759Z,18.39
2018-05-24T09:48:21.743Z,18.52
2018-05-24T09:49:21.777Z,18.45
2018-05-24T09:50:21.756Z,18.57
2018-05-24T09:51:21.728Z,18.64
2018-05-24T09:52:21.735Z,18.67
2018-05-24T09:53:21.695Z,18.68
2018-05-24T09:54:21.666Z,18.74
2018-05-24T09:55:21.782Z,18.83
2018-05-24T09:56:21.647Z,18.82
2018-05-24T09:57:21.658Z,18.83
2018-05-24T09:58:21.619Z,18.96
2018-05-24T09:59:21.594Z,18.96
2018-05-24T10:00:21.600Z,18.88
2018-05-24T10:01:21.569Z,18.96
2018-05-24T10:02:21.545Z,18.96
2018-05-24T10:03:21.538Z,19.07
2018-05-24T10:04:21.527Z,19.07
2018-05-24T10:05:21.506Z,19.19
2018-05-24T10:06:21.551Z,19.22
2018-05-24T10:07:21.471Z,19.22
2018-05-24T10:08:21.497Z,19.35
2018-05-24T10:09:21.491Z,19.38
2018-05-24T10:10:21.466Z,19.42
2018-05-24T10:11:21.463Z,19.53
2018-05-24T10:12:21.420Z,19.47
2018-05-24T10:13:21.408Z,19.56
2018-05-24T10:14:21.380Z,19.67
2018-05-24T10:15:21.409Z,19.75
2018-05-24T10:16:21.484Z,19.78
2018-05-24T10:17:21.381Z,19.81
2018-05-24T10:18:21.334Z,19.82
2018-05-24T10:19:21.341Z,19.99
2018-05-24T10:20:21.309Z,19.96
2018-05-24T10:21:21.287Z,20.09
2018-05-24T10:22:21.302Z,20.11
2018-05-24T10:23:21.291Z,20.17
2018-05-24T10:24:21.267Z,20.23
2018-05-24T10:25:21.238Z,20.25
2018-05-24T10:26:21.259Z,20.41
2018-05-24T10:27:21.208Z,20.37
2018-05-24T10:28:21.201Z,20.53
2018-05-24T10:29:21.264Z,20.68
2018-05-24T10:30:21.214Z,20.80
2018-05-24T10:31:21.205Z,20.95
2018-05-24T10:32:21.151Z,21.04
2018-05-24T10:33:21.195Z,21.18
2018-05-24T10:34:21.148Z,21.26
2018-05-24T10:35:21.173Z,21.40
2018-05-24T10:36:21.159Z,21.43
2018-05-24T10:37:21.129Z,21.51
2018-05-24T10:38:21.154Z,21.58
2018-05-24T10:39:21.083Z,21.65
2018-05-24T10:40:21.113Z,21.74
2018-05-24T10:41:21.064Z,21.81
2018-05-24T10:42:21.044Z,21.85
2018-05-24T10:43:21.071Z,21.88
2018-05-24T10:44:21.003Z,22.01
2018-05-24T10:45:20.994Z,22.07
2018-05-24T10:46:20.980Z,22.03
2018-05-24T10:47:21.012Z,22.23
2018-05-24T10:48:20.973Z,22.23
2018-05-24T10:49:20.952Z,22.38
2018-05-24T10:50:20.953Z,22.37
2018-05-24T10:51:20.989Z,22.53
2018-05-24T10:52:20.975Z,22.68
2018-05-24T10:53:20.944Z,22.73
2018-05-24T10:54:20.940Z,22.88
2018-05-24T10:55:20.968Z,23.03
2018-05-24T10:56:20.874Z,23.10
2018-05-24T10:57:20.861Z,23.13
2018-05-24T10:58:20.925Z,23.28
2018-05-24T10:59:20.865Z,23.34
2018-05-24T11:00:20.861Z,23.44
2018-05-24T11:01:20.843Z,23.55
2018-05-24T11:02:20.855Z,23.55
2018-05-24T11:03:20.887Z,23.55
2018-05-24T11:04:20.869Z,23.49
2018-05-24T11:05:20.823Z,23.49
2018-05-24T11:06:20.819Z,23.45
2018-05-24T11:07:20.781Z,23.22
2018-05-24T11:08:20.755Z,23.15
2018-05-24T11:09:20.754Z,23.17
2018-05-24T11:10:20.736Z,23.17
2018-05-24T11:11:20.724Z,23.06
2018-05-24T11:12:20.770Z,22.99
2018-05-24T11:13:20.705Z,23.06
2018-05-24T11:14:20.726Z,23.04
2018-05-24T11:15:20.709Z,23.03
2018-05-24T11:16:20.699Z,23.06
2018-05-24T11:17:20.676Z,23.11
2018-05-24T11:18:20.705Z,23.10
2018-05-24T11:19:20.690Z,23.26
2018-05-24T11:20:20.641Z,23.28
2018-05-24T11:21:20.726Z,23.28
2018-05-24T11:22:20.648Z,23.41
2018-05-24T11:23:20.622Z,23.41
2018-05-24T11:24:20.649Z,23.34
2018-05-24T11:25:20.606Z,23.34
2018-05-24T11:26:20.587Z,23.33
2018-05-24T11:27:20.590Z,23.34
2018-05-24T11:28:20.624Z,23.26
2018-05-24T11:29:20.571Z,23.18
2018-05-24T11:30:20.606Z,23.07
2018-05-24T11:31:20.589Z,22.98
2018-05-24T11:32:20.551Z,22.93
2018-05-24T11:33:20.549Z,22.93
2018-05-24T11:34:20.587Z,22.83
2018-05-24T11:35:20.592Z,22.91
2018-05-24T11:36:20.491Z,22.99
2018-05-24T11:37:20.543Z,23.06
2018-05-24T11:38:20.553Z,22.98
2018-05-24T11:39:20.495Z,22.99
2018-05-24T11:40:20.468Z,23.01
2018-05-24T11:41:20.470Z,23.11
2018-05-24T11:42:20.492Z,23.03
2018-05-24T11:43:20.614Z,23.13
2018-05-24T11:44:20.419Z,23.07
2018-05-24T11:45:20.405Z,23.11
2018-05-24T11:46:20.476Z,23.23
2018-05-24T11:47:20.449Z,23.25
2018-05-24T11:48:20.445Z,23.44
2018-05-24T11:49:20.391Z,23.56
2018-05-24T11:50:20.390Z,23.64
2018-05-24T11:51:20.385Z,23.78
2018-05-24T11:52:20.354Z,23.89
2018-05-24T11:53:20.337Z,23.98
2018-05-24T11:54:20.321Z,24.15
2018-05-24T11:55:20.316Z,24.21
2018-05-24T11:56:20.324Z,24.34
2018-05-24T11:57:20.360Z,24.43
2018-05-24T11:58:20.325Z,24.59
2018-05-24T11:59:20.301Z,24.70
2018-05-24T12:00:20.270Z,24.86
2018-05-24T12:01:20.262Z,24.86
2018-05-24T12:02:20.302Z,25.00
2018-05-24T12:03:20.313Z,25.04
2018-05-24T12:04:20.245Z,25.19
2018-05-24T12:05:20.252Z,25.23
2018-05-24T12:06:20.248Z,25.16
2018-05-24T12:07:20.208Z,25.22
2018-05-24T12:08:20.199Z,25.11
2018-05-24T12:09:20.271Z,24.97
2018-05-24T12:10:20.200Z,25.03
2018-05-24T12:11:20.195Z,25.09
2018-05-24T12:12:20.198Z,25.16
2018-05-24T12:13:20.200Z,25.22
2018-05-24T12:14:20.166Z,25.28
2018-05-24T12:15:20.215Z,25.33
2018-05-24T12:16:20.144Z,25.43
2018-05-24T12:17:20.230Z,25.51
2018-05-24T12:18:20.154Z,25.49
2018-05-24T12:19:20.138Z,25.58
2018-05-24T12:20:20.123Z,25.71
2018-05-24T12:21:20.112Z,25.77
2018-05-24T12:22:20.090Z,25.89
2018-05-24T12:23:20.081Z,26.03
2018-05-24T12:24:20.074Z,25.96
2018-05-24T12:25:20.087Z,26.04
2018-05-24T12:26:20.093Z,26.08
2018-05-24T12:27:20.073Z,26.11
2018-05-24T12:28:20.117Z,26.10
2018-05-24T12:29:20.107Z,26.26
2018-05-24T12:30:20.070Z,26.39
2018-05-24T12:31:20.025Z,26.42
2018-05-24T12:32:20.022Z,26.60
2018-05-24T12:33:20.038Z,26.60
2018-05-24T12:34:20.023Z,26.64
2018-05-24T12:35:20.138Z,26.61
2018-05-24T12:36:19.998Z,26.64
2018-05-24T12:37:20.016Z,26.39
2018-05-24T12:38:19.971Z,26.45
2018-05-24T12:39:20.001Z,26.41
2018-05-24T12:40:19.975Z,26.45
2018-05-24T12:41:19.984Z,26.38
2018-05-24T12:42:19.994Z,26.26
2018-05-24T12:43:20.020Z,26.28
2018-05-24T12:44:19.967Z,26.08
2018-05-24T12:45:19.921Z,26.15
2018-05-24T12:46:19.940Z,26.07
2018-05-24T12:47:19.903Z,25.77
2018-05-24T12:48:19.929Z,25.56
2018-05-24T12:49:19.905Z,25.55
2018-05-24T12:50:19.907Z,25.56
2018-05-24T12:51:19.927Z,25.52
2018-05-24T12:52:19.920Z,25.22
2018-05-24T12:53:19.875Z,24.82
2018-05-24T12:54:19.880Z,24.63
2018-05-24T12:55:19.866Z,24.36
2018-05-24T12:56:19.894Z,24.26
2018-05-24T12:57:19.896Z,24.25
2018-05-24T12:58:19.835Z,24.18
2018-05-24T12:59:19.835Z,24.19
2018-05-24T13:00:19.829Z,24.22
2018-05-24T13:01:19.824Z,24.15
2018-05-24T13:02:19.849Z,24.01
2018-05-24T13:03:19.841Z,24.04
2018-05-24T13:04:19.922Z,23.98
2018-05-24T13:05:19.811Z,23.94
2018-05-24T13:06:19.793Z,23.82
2018-05-24T13:07:19.778Z,23.86
2018-05-24T13:08:19.756Z,23.89
2018-05-24T13:09:19.771Z,23.86
2018-05-24T13:10:19.765Z,23.97
2018-05-24T13:11:19.855Z,23.92
2018-05-24T13:12:19.749Z,24.01
2018-05-24T13:13:19.692Z,23.89
2018-05-24T13:14:19.709Z,23.96
2018-05-24T13:15:19.699Z,23.94
2018-05-24T13:16:19.675Z,23.96
2018-05-24T13:17:19.673Z,23.86
2018-05-24T13:18:19.649Z,23.82
2018-05-24T13:19:19.684Z,23.88
2018-05-24T13:20:19.641Z,23.84
2018-05-24T13:21:19.793Z,23.81
2018-05-24T13:22:19.625Z,23.86
2018-05-24T13:23:19.637Z,23.64
2018-05-24T13:24:19.612Z,23.64